sensor_id;sensor_type;location;lat;lon;timestamp;pressure;altitude;pressure_sealevel;temperature;humidity
40372;BME280;28564;53.346;-6.554;2023-03-03T00:00:40;102278.73;;;9.61;45.32
40372;BME280;28564;53.346;-6.554;2023-03-03T00:03:09;102273.39;;;9.57;45.24
40372;BME280;28564;53.346;-6.554;2023-03-03T00:05:38;102270.20;;;9.74;45.32
40372;BME280;28564;53.346;-6.554;2023-03-03T00:08:05;102270.80;;;9.48;45.33
40372;BME280;28564;53.346;-6.554;2023-03-03T00:10:33;102270.62;;;9.44;45.38
40372;BME280;28564;53.346;-6.554;2023-03-03T00:13:00;102272.81;;;9.42;45.39
40372;BME280;28564;53.346;-6.554;2023-03-03T00:15:28;102271.07;;;9.89;45.43
40372;BME280;28564;53.346;-6.554;2023-03-03T00:17:55;102269.43;;;9.39;45.48
40372;BME280;28564;53.346;-6.554;2023-03-03T00:20:34;102269.77;;;9.61;45.49
40372;BME280;28564;53.346;-6.554;2023-03-03T00:23:14;102274.99;;;9.40;45.50
40372;BME280;28564;53.346;-6.554;2023-03-03T00:25:43;102276.37;;;9.41;45.43
40372;BME280;28564;53.346;-6.554;2023-03-03T00:28:29;102273.44;;;9.57;45.41
40372;BME280;28564;53.346;-6.554;2023-03-03T00:30:58;102274.05;;;9.51;45.35
40372;BME280;28564;53.346;-6.554;2023-03-03T00:33:28;102274.78;;;9.23;45.20
40372;BME280;28564;53.346;-6.554;2023-03-03T00:36:05;102275.81;;;9.22;45.17
40372;BME280;28564;53.346;-6.554;2023-03-03T00:38:36;102280.10;;;9.24;45.01
40372;BME280;28564;53.346;-6.554;2023-03-03T00:41:14;102279.08;;;9.23;44.73
40372;BME280;28564;53.346;-6.554;2023-03-03T00:43:43;102278.84;;;9.25;44.70
40372;BME280;28564;53.346;-6.554;2023-03-03T00:46:15;102278.74;;;9.78;44.63
40372;BME280;28564;53.346;-6.554;2023-03-03T00:48:44;102277.51;;;9.33;44.57
40372;BME280;28564;53.346;-6.554;2023-03-03T00:51:25;102277.34;;;9.35;44.53
40372;BME280;28564;53.346;-6.554;2023-03-03T00:53:53;102274.88;;;9.60;44.51
40372;BME280;28564;53.346;-6.554;2023-03-03T00:56:20;102274.42;;;9.38;44.49
40372;BME280;28564;53.346;-6.554;2023-03-03T00:58:47;102275.53;;;9.36;44.48
40372;BME280;28564;53.346;-6.554;2023-03-03T01:01:15;102274.31;;;9.32;44.39
40372;BME280;28564;53.346;-6.554;2023-03-03T01:03:44;102275.72;;;9.31;44.43
40372;BME280;28564;53.346;-6.554;2023-03-03T01:06:11;102276.28;;;9.56;44.43
40372;BME280;28564;53.346;-6.554;2023-03-03T01:08:39;102277.77;;;9.34;44.40
40372;BME280;28564;53.346;-6.554;2023-03-03T01:11:08;102278.72;;;9.32;44.39
40372;BME280;28564;53.346;-6.554;2023-03-03T01:13:41;102276.21;;;9.28;44.39
40372;BME280;28564;53.346;-6.554;2023-03-03T01:16:10;102274.70;;;9.46;44.30
40372;BME280;28564;53.346;-6.554;2023-03-03T01:18:38;102275.42;;;9.66;43.87
40372;BME280;28564;53.346;-6.554;2023-03-03T01:21:05;102273.52;;;9.07;43.46
40372;BME280;28564;53.346;-6.554;2023-03-03T01:23:32;102275.31;;;9.18;43.24
40372;BME280;28564;53.346;-6.554;2023-03-03T01:25:59;102279.91;;;9.36;42.99
40372;BME280;28564;53.346;-6.554;2023-03-03T01:28:27;102285.50;;;9.27;42.75
40372;BME280;28564;53.346;-6.554;2023-03-03T01:30:54;102285.33;;;8.94;42.65
40372;BME280;28564;53.346;-6.554;2023-03-03T01:33:25;102288.66;;;9.10;41.98
40372;BME280;28564;53.346;-6.554;2023-03-03T01:35:53;102289.37;;;8.73;41.59
40372;BME280;28564;53.346;-6.554;2023-03-03T01:38:20;102288.63;;;8.94;41.39
40372;BME280;28564;53.346;-6.554;2023-03-03T01:40:52;102293.78;;;8.95;41.52
40372;BME280;28564;53.346;-6.554;2023-03-03T01:43:20;102291.03;;;9.03;41.43
40372;BME280;28564;53.346;-6.554;2023-03-03T01:46:54;102288.28;;;9.10;41.40
40372;BME280;28564;53.346;-6.554;2023-03-03T01:49:29;102290.08;;;9.23;41.46
40372;BME280;28564;53.346;-6.554;2023-03-03T01:52:00;102290.56;;;9.28;41.29
40372;BME280;28564;53.346;-6.554;2023-03-03T01:54:32;102290.43;;;9.35;41.31
40372;BME280;28564;53.346;-6.554;2023-03-03T01:57:04;102289.24;;;9.14;41.32
40372;BME280;28564;53.346;-6.554;2023-03-03T01:59:34;102288.16;;;9.43;41.24
40372;BME280;28564;53.346;-6.554;2023-03-03T02:02:03;102288.11;;;9.23;41.28
40372;BME280;28564;53.346;-6.554;2023-03-03T02:04:31;102288.63;;;9.31;41.30
40372;BME280;28564;53.346;-6.554;2023-03-03T02:07:04;102291.69;;;9.62;41.34
40372;BME280;28564;53.346;-6.554;2023-03-03T02:09:37;102293.08;;;9.16;41.39
40372;BME280;28564;53.346;-6.554;2023-03-03T02:12:10;102292.83;;;9.39;41.39
40372;BME280;28564;53.346;-6.554;2023-03-03T02:14:38;102292.45;;;9.36;41.14
40372;BME280;28564;53.346;-6.554;2023-03-03T02:17:05;102292.30;;;9.09;41.22
40372;BME280;28564;53.346;-6.554;2023-03-03T02:19:41;102290.98;;;9.04;41.30
40372;BME280;28564;53.346;-6.554;2023-03-03T02:22:14;102289.25;;;9.48;41.37
40372;BME280;28564;53.346;-6.554;2023-03-03T02:24:45;102288.21;;;9.16;41.44
40372;BME280;28564;53.346;-6.554;2023-03-03T02:27:15;102288.33;;;9.39;41.53
40372;BME280;28564;53.346;-6.554;2023-03-03T02:29:43;102285.93;;;9.34;41.64
40372;BME280;28564;53.346;-6.554;2023-03-03T02:32:10;102286.01;;;9.05;41.70
40372;BME280;28564;53.346;-6.554;2023-03-03T02:34:47;102288.95;;;9.30;41.73
40372;BME280;28564;53.346;-6.554;2023-03-03T02:37:15;102283.90;;;9.35;41.63
40372;BME280;28564;53.346;-6.554;2023-03-03T02:39:44;102283.97;;;9.30;41.71
40372;BME280;28564;53.346;-6.554;2023-03-03T02:42:15;102287.27;;;9.23;41.71
40372;BME280;28564;53.346;-6.554;2023-03-03T02:44:45;102287.98;;;9.13;41.84
40372;BME280;28564;53.346;-6.554;2023-03-03T02:47:12;102292.31;;;9.07;42.01
40372;BME280;28564;53.346;-6.554;2023-03-03T02:49:39;102292.23;;;9.06;42.15
40372;BME280;28564;53.346;-6.554;2023-03-03T02:52:09;102292.65;;;9.07;42.24
40372;BME280;28564;53.346;-6.554;2023-03-03T02:54:38;102290.88;;;9.04;42.40
40372;BME280;28564;53.346;-6.554;2023-03-03T02:57:05;102292.09;;;9.05;42.52
40372;BME280;28564;53.346;-6.554;2023-03-03T02:59:33;102292.95;;;9.08;42.62
40372;BME280;28564;53.346;-6.554;2023-03-03T03:02:00;102291.12;;;9.10;42.75
40372;BME280;28564;53.346;-6.554;2023-03-03T03:04:27;102293.70;;;9.10;42.90
40372;BME280;28564;53.346;-6.554;2023-03-03T03:06:55;102290.14;;;9.07;43.03
40372;BME280;28564;53.346;-6.554;2023-03-03T03:09:24;102286.56;;;8.78;43.15
40372;BME280;28564;53.346;-6.554;2023-03-03T03:11:51;102288.34;;;9.07;43.25
40372;BME280;28564;53.346;-6.554;2023-03-03T03:14:18;102289.83;;;9.08;43.34
40372;BME280;28564;53.346;-6.554;2023-03-03T03:16:47;102288.21;;;9.10;43.42
40372;BME280;28564;53.346;-6.554;2023-03-03T03:19:14;102289.82;;;8.86;43.46
40372;BME280;28564;53.346;-6.554;2023-03-03T03:21:41;102291.48;;;9.16;43.54
40372;BME280;28564;53.346;-6.554;2023-03-03T03:24:08;102293.17;;;9.20;43.56
40372;BME280;28564;53.346;-6.554;2023-03-03T03:26:35;102291.85;;;9.21;43.61
40372;BME280;28564;53.346;-6.554;2023-03-03T03:29:03;102290.97;;;9.23;43.65
40372;BME280;28564;53.346;-6.554;2023-03-03T03:31:31;102289.77;;;8.97;43.69
40372;BME280;28564;53.346;-6.554;2023-03-03T03:33:58;102283.70;;;9.25;43.73
40372;BME280;28564;53.346;-6.554;2023-03-03T03:36:26;102287.29;;;9.02;43.76
40372;BME280;28564;53.346;-6.554;2023-03-03T03:38:53;102286.85;;;9.31;43.76
40372;BME280;28564;53.346;-6.554;2023-03-03T03:41:20;102282.63;;;9.32;43.77
40372;BME280;28564;53.346;-6.554;2023-03-03T03:43:47;102278.40;;;9.31;43.82
40372;BME280;28564;53.346;-6.554;2023-03-03T03:46:15;102279.27;;;9.30;43.85
40372;BME280;28564;53.346;-6.554;2023-03-03T03:48:42;102276.41;;;9.31;43.92
40372;BME280;28564;53.346;-6.554;2023-03-03T03:51:10;102277.29;;;9.29;43.98
40372;BME280;28564;53.346;-6.554;2023-03-03T03:53:38;102274.29;;;9.30;44.08
40372;BME280;28564;53.346;-6.554;2023-03-03T03:56:06;102270.91;;;9.31;44.09
40372;BME280;28564;53.346;-6.554;2023-03-03T03:58:33;102270.54;;;9.06;44.10
40372;BME280;28564;53.346;-6.554;2023-03-03T04:01:02;102269.62;;;9.36;44.13
40372;BME280;28564;53.346;-6.554;2023-03-03T04:03:29;102274.41;;;9.16;44.07
40372;BME280;28564;53.346;-6.554;2023-03-03T04:05:57;102276.53;;;9.43;44.10
40372;BME280;28564;53.346;-6.554;2023-03-03T04:08:24;102276.85;;;8.93;44.12
40372;BME280;28564;53.346;-6.554;2023-03-03T04:10:51;102276.37;;;9.14;44.17
40372;BME280;28564;53.346;-6.554;2023-03-03T04:13:18;102275.36;;;9.39;44.19
40372;BME280;28564;53.346;-6.554;2023-03-03T04:15:46;102276.95;;;8.89;44.25
40372;BME280;28564;53.346;-6.554;2023-03-03T04:18:13;102277.28;;;9.11;44.31
40372;BME280;28564;53.346;-6.554;2023-03-03T04:20:40;102279.45;;;9.40;44.35
40372;BME280;28564;53.346;-6.554;2023-03-03T04:23:08;102286.84;;;9.42;44.39
40372;BME280;28564;53.346;-6.554;2023-03-03T04:25:35;102287.90;;;9.42;44.37
40372;BME280;28564;53.346;-6.554;2023-03-03T04:28:02;102286.71;;;9.43;44.37
40372;BME280;28564;53.346;-6.554;2023-03-03T04:30:30;102286.07;;;9.42;44.38
40372;BME280;28564;53.346;-6.554;2023-03-03T04:32:57;102283.95;;;9.15;44.42
40372;BME280;28564;53.346;-6.554;2023-03-03T04:35:24;102285.69;;;9.15;44.41
40372;BME280;28564;53.346;-6.554;2023-03-03T04:37:52;102286.15;;;9.41;44.47
40372;BME280;28564;53.346;-6.554;2023-03-03T04:40:19;102290.77;;;9.15;44.52
40372;BME280;28564;53.346;-6.554;2023-03-03T04:42:46;102287.79;;;9.40;44.59
40372;BME280;28564;53.346;-6.554;2023-03-03T04:45:13;102287.22;;;9.40;44.63
40372;BME280;28564;53.346;-6.554;2023-03-03T04:47:41;102290.67;;;9.14;44.69
40372;BME280;28564;53.346;-6.554;2023-03-03T04:50:09;102291.15;;;9.15;44.70
40372;BME280;28564;53.346;-6.554;2023-03-03T04:52:37;102288.71;;;9.17;44.71
40372;BME280;28564;53.346;-6.554;2023-03-03T04:55:05;102288.12;;;9.18;44.71
40372;BME280;28564;53.346;-6.554;2023-03-03T04:57:32;102288.95;;;9.45;44.77
40372;BME280;28564;53.346;-6.554;2023-03-03T05:00:00;102287.75;;;9.19;44.79
40372;BME280;28564;53.346;-6.554;2023-03-03T05:02:27;102282.24;;;8.96;44.83
40372;BME280;28564;53.346;-6.554;2023-03-03T05:04:54;102282.02;;;9.18;44.85
40372;BME280;28564;53.346;-6.554;2023-03-03T05:07:21;102280.15;;;8.95;44.93
40372;BME280;28564;53.346;-6.554;2023-03-03T05:09:49;102281.02;;;9.16;44.91
40372;BME280;28564;53.346;-6.554;2023-03-03T05:12:16;102284.77;;;9.13;44.95
40372;BME280;28564;53.346;-6.554;2023-03-03T05:14:43;102282.76;;;8.91;44.99
40372;BME280;28564;53.346;-6.554;2023-03-03T05:17:11;102288.71;;;9.12;44.98
40372;BME280;28564;53.346;-6.554;2023-03-03T05:19:38;102297.69;;;9.37;45.07
40372;BME280;28564;53.346;-6.554;2023-03-03T05:22:05;102300.64;;;9.36;45.17
40372;BME280;28564;53.346;-6.554;2023-03-03T05:24:33;102298.01;;;9.09;45.23
40372;BME280;28564;53.346;-6.554;2023-03-03T05:27:00;102297.64;;;9.08;45.26
40372;BME280;28564;53.346;-6.554;2023-03-03T05:29:27;102293.00;;;9.08;45.29
40372;BME280;28564;53.346;-6.554;2023-03-03T05:31:54;102291.57;;;9.34;45.33
40372;BME280;28564;53.346;-6.554;2023-03-03T05:34:22;102291.15;;;9.33;45.35
40372;BME280;28564;53.346;-6.554;2023-03-03T05:36:49;102292.02;;;9.30;45.36
40372;BME280;28564;53.346;-6.554;2023-03-03T05:39:16;102296.25;;;9.02;45.45
40372;BME280;28564;53.346;-6.554;2023-03-03T05:41:44;102297.83;;;9.03;45.50
40372;BME280;28564;53.346;-6.554;2023-03-03T05:44:12;102296.17;;;9.36;45.47
40372;BME280;28564;53.346;-6.554;2023-03-03T05:46:44;102297.46;;;9.42;45.38
40372;BME280;28564;53.346;-6.554;2023-03-03T05:49:11;102292.72;;;9.37;45.42
40372;BME280;28564;53.346;-6.554;2023-03-03T05:51:39;102292.61;;;9.06;45.50
40372;BME280;28564;53.346;-6.554;2023-03-03T05:54:06;102291.60;;;9.02;45.60
40372;BME280;28564;53.346;-6.554;2023-03-03T05:56:33;102289.83;;;8.99;45.68
40372;BME280;28564;53.346;-6.554;2023-03-03T05:59:01;102288.89;;;9.26;45.78
40372;BME280;28564;53.346;-6.554;2023-03-03T06:01:28;102288.62;;;9.01;45.85
40372;BME280;28564;53.346;-6.554;2023-03-03T06:03:55;102287.21;;;9.03;45.91
40372;BME280;28564;53.346;-6.554;2023-03-03T06:06:22;102291.09;;;9.07;45.93
40372;BME280;28564;53.346;-6.554;2023-03-03T06:08:50;102293.42;;;9.07;45.94
40372;BME280;28564;53.346;-6.554;2023-03-03T06:11:17;102293.22;;;9.33;46.02
40372;BME280;28564;53.346;-6.554;2023-03-03T06:13:44;102294.24;;;9.35;46.10
40372;BME280;28564;53.346;-6.554;2023-03-03T06:16:11;102291.95;;;9.10;46.09
40372;BME280;28564;53.346;-6.554;2023-03-03T06:18:39;102294.71;;;8.92;46.08
40372;BME280;28564;53.346;-6.554;2023-03-03T06:21:06;102293.21;;;9.40;46.13
40372;BME280;28564;53.346;-6.554;2023-03-03T06:23:34;102288.68;;;9.38;46.18
40372;BME280;28564;53.346;-6.554;2023-03-03T06:26:01;102287.38;;;9.39;46.27
40372;BME280;28564;53.346;-6.554;2023-03-03T06:28:28;102283.72;;;8.91;46.29
40372;BME280;28564;53.346;-6.554;2023-03-03T06:30:56;102280.83;;;9.37;46.27
40372;BME280;28564;53.346;-6.554;2023-03-03T06:33:23;102289.67;;;9.25;46.40
40372;BME280;28564;53.346;-6.554;2023-03-03T06:35:50;102290.87;;;8.91;46.55
40372;BME280;28564;53.346;-6.554;2023-03-03T06:38:19;102294.85;;;9.15;46.71
40372;BME280;28564;53.346;-6.554;2023-03-03T06:40:47;102299.39;;;8.88;46.72
40372;BME280;28564;53.346;-6.554;2023-03-03T06:43:14;102303.02;;;9.15;46.78
40372;BME280;28564;53.346;-6.554;2023-03-03T06:45:41;102303.10;;;9.16;46.79
40372;BME280;28564;53.346;-6.554;2023-03-03T06:48:08;102306.98;;;9.15;46.81
40372;BME280;28564;53.346;-6.554;2023-03-03T06:50:35;102308.85;;;9.14;46.89
40372;BME280;28564;53.346;-6.554;2023-03-03T06:53:10;102308.82;;;9.13;46.88
40372;BME280;28564;53.346;-6.554;2023-03-03T06:55:39;102309.00;;;9.12;46.84
40372;BME280;28564;53.346;-6.554;2023-03-03T06:58:11;102310.72;;;9.08;46.86
40372;BME280;28564;53.346;-6.554;2023-03-03T07:00:40;102312.81;;;9.07;46.90
40372;BME280;28564;53.346;-6.554;2023-03-03T07:03:13;102316.45;;;9.05;46.96
40372;BME280;28564;53.346;-6.554;2023-03-03T07:05:41;102318.20;;;9.02;47.02
40372;BME280;28564;53.346;-6.554;2023-03-03T07:08:13;102320.70;;;9.02;47.09
40372;BME280;28564;53.346;-6.554;2023-03-03T07:10:41;102324.84;;;8.82;47.08
40372;BME280;28564;53.346;-6.554;2023-03-03T07:13:19;102325.53;;;9.17;47.08
40372;BME280;28564;53.346;-6.554;2023-03-03T07:15:48;102328.43;;;9.22;47.02
40372;BME280;28564;53.346;-6.554;2023-03-03T07:18:32;102331.56;;;8.97;47.02
40372;BME280;28564;53.346;-6.554;2023-03-03T07:21:07;102331.72;;;9.24;47.08
40372;BME280;28564;53.346;-6.554;2023-03-03T07:23:39;102332.29;;;9.02;47.12
40372;BME280;28564;53.346;-6.554;2023-03-03T07:26:09;102335.67;;;9.34;47.15
40372;BME280;28564;53.346;-6.554;2023-03-03T07:28:40;102336.11;;;9.12;47.08
40372;BME280;28564;53.346;-6.554;2023-03-03T07:31:24;102338.50;;;9.15;47.06
40372;BME280;28564;53.346;-6.554;2023-03-03T07:33:54;102335.45;;;8.96;47.07
40372;BME280;28564;53.346;-6.554;2023-03-03T07:36:26;102337.03;;;8.97;47.08
40372;BME280;28564;53.346;-6.554;2023-03-03T07:38:56;102338.66;;;8.99;47.09
40372;BME280;28564;53.346;-6.554;2023-03-03T07:41:25;102339.43;;;9.02;47.04
40372;BME280;28564;53.346;-6.554;2023-03-03T07:43:56;102348.14;;;9.22;47.00
40372;BME280;28564;53.346;-6.554;2023-03-03T07:46:28;102349.07;;;9.21;47.08
40372;BME280;28564;53.346;-6.554;2023-03-03T07:48:56;102352.95;;;9.02;47.12
40372;BME280;28564;53.346;-6.554;2023-03-03T07:51:26;102353.28;;;9.07;47.08
40372;BME280;28564;53.346;-6.554;2023-03-03T07:54:08;102353.28;;;9.15;47.03
40372;BME280;28564;53.346;-6.554;2023-03-03T07:56:37;102350.15;;;9.24;46.94
40372;BME280;28564;53.346;-6.554;2023-03-03T07:59:17;102351.06;;;9.50;46.82
40372;BME280;28564;53.346;-6.554;2023-03-03T08:01:50;102354.57;;;9.35;46.71
40372;BME280;28564;53.346;-6.554;2023-03-03T08:04:21;102354.27;;;9.33;46.76
40372;BME280;28564;53.346;-6.554;2023-03-03T08:06:51;102355.00;;;9.51;46.88
40372;BME280;28564;53.346;-6.554;2023-03-03T08:09:29;102353.54;;;9.78;47.00
40372;BME280;28564;53.346;-6.554;2023-03-03T08:12:00;102356.25;;;9.32;47.04
40372;BME280;28564;53.346;-6.554;2023-03-03T08:14:38;102356.29;;;9.57;47.06
40372;BME280;28564;53.346;-6.554;2023-03-03T08:17:12;102359.88;;;9.88;47.08
40372;BME280;28564;53.346;-6.554;2023-03-03T08:19:42;102362.78;;;9.66;47.07
40372;BME280;28564;53.346;-6.554;2023-03-03T08:22:13;102356.27;;;9.46;47.07
40372;BME280;28564;53.346;-6.554;2023-03-03T08:24:42;102355.39;;;9.53;47.14
40372;BME280;28564;53.346;-6.554;2023-03-03T08:27:09;102359.33;;;9.58;47.14
40372;BME280;28564;53.346;-6.554;2023-03-03T08:29:37;102360.29;;;9.59;47.15
40372;BME280;28564;53.346;-6.554;2023-03-03T08:32:04;102365.75;;;9.62;47.16
40372;BME280;28564;53.346;-6.554;2023-03-03T08:34:31;102368.34;;;9.66;47.18
40372;BME280;28564;53.346;-6.554;2023-03-03T08:36:58;102373.82;;;9.68;47.22
40372;BME280;28564;53.346;-6.554;2023-03-03T08:39:25;102377.82;;;9.73;47.23
40372;BME280;28564;53.346;-6.554;2023-03-03T08:41:53;102378.89;;;9.77;47.15
40372;BME280;28564;53.346;-6.554;2023-03-03T08:44:20;102383.35;;;9.71;47.19
40372;BME280;28564;53.346;-6.554;2023-03-03T08:46:47;102389.42;;;9.91;47.29
40372;BME280;28564;53.346;-6.554;2023-03-03T08:49:15;102392.01;;;9.61;47.38
40372;BME280;28564;53.346;-6.554;2023-03-03T08:51:42;102395.37;;;9.54;47.28
40372;BME280;28564;53.346;-6.554;2023-03-03T08:54:09;102396.66;;;9.46;47.30
40372;BME280;28564;53.346;-6.554;2023-03-03T08:56:36;102396.91;;;9.40;47.44
40372;BME280;28564;53.346;-6.554;2023-03-03T08:59:03;102398.21;;;9.35;47.43
40372;BME280;28564;53.346;-6.554;2023-03-03T09:01:31;102397.29;;;9.32;47.54
40372;BME280;28564;53.346;-6.554;2023-03-03T09:03:59;102397.63;;;9.30;47.50
40372;BME280;28564;53.346;-6.554;2023-03-03T09:06:26;102401.41;;;9.51;47.27
40372;BME280;28564;53.346;-6.554;2023-03-03T09:08:53;102403.45;;;9.25;47.07
40372;BME280;28564;53.346;-6.554;2023-03-03T09:11:24;102403.95;;;9.45;47.04
40372;BME280;28564;53.346;-6.554;2023-03-03T09:13:56;102406.89;;;9.48;47.01
40372;BME280;28564;53.346;-6.554;2023-03-03T09:16:36;102410.65;;;9.57;46.98
40372;BME280;28564;53.346;-6.554;2023-03-03T09:19:16;102412.28;;;9.41;46.73
40372;BME280;28564;53.346;-6.554;2023-03-03T09:21:45;102413.46;;;9.49;46.73
40372;BME280;28564;53.346;-6.554;2023-03-03T09:24:20;102419.63;;;9.57;46.50
40372;BME280;28564;53.346;-6.554;2023-03-03T09:26:51;102420.70;;;9.34;46.26
40372;BME280;28564;53.346;-6.554;2023-03-03T09:29:23;102422.28;;;9.34;46.21
40372;BME280;28564;53.346;-6.554;2023-03-03T09:31:52;102427.21;;;9.67;46.13
40372;BME280;28564;53.346;-6.554;2023-03-03T09:34:22;102431.92;;;9.69;46.06
40372;BME280;28564;53.346;-6.554;2023-03-03T09:36:51;102435.60;;;9.44;45.89
40372;BME280;28564;53.346;-6.554;2023-03-03T09:39:20;102435.90;;;9.72;45.74
40372;BME280;28564;53.346;-6.554;2023-03-03T09:42:34;102440.23;;;9.69;45.33
40372;BME280;28564;53.346;-6.554;2023-03-03T09:45:18;102441.54;;;9.62;45.30
40372;BME280;28564;53.346;-6.554;2023-03-03T09:48:00;102439.27;;;9.65;45.17
40372;BME280;28564;53.346;-6.554;2023-03-03T09:50:38;102443.53;;;9.67;45.07
40372;BME280;28564;53.346;-6.554;2023-03-03T09:53:18;102439.80;;;9.71;45.05
40372;BME280;28564;53.346;-6.554;2023-03-03T09:55:57;102441.69;;;9.51;45.15
40372;BME280;28564;53.346;-6.554;2023-03-03T09:58:36;102441.62;;;9.78;45.04
40372;BME280;28564;53.346;-6.554;2023-03-03T10:04:15;102436.55;;;10.06;44.40
40372;BME280;28564;53.346;-6.554;2023-03-03T10:06:50;102438.19;;;10.12;44.24
40372;BME280;28564;53.346;-6.554;2023-03-03T10:09:46;102438.04;;;10.15;44.24
40372;BME280;28564;53.346;-6.554;2023-03-03T10:12:21;102439.08;;;10.20;44.09
40372;BME280;28564;53.346;-6.554;2023-03-03T10:15:03;102439.22;;;10.17;44.10
40372;BME280;28564;53.346;-6.554;2023-03-03T10:17:47;102443.83;;;10.22;44.29
40372;BME280;28564;53.346;-6.554;2023-03-03T10:20:26;102445.28;;;10.58;44.26
40372;BME280;28564;53.346;-6.554;2023-03-03T10:23:03;102448.20;;;10.52;43.97
40372;BME280;28564;53.346;-6.554;2023-03-03T10:25:38;102452.48;;;10.63;43.48
40372;BME280;28564;53.346;-6.554;2023-03-03T10:28:23;102456.08;;;10.66;43.30
40372;BME280;28564;53.346;-6.554;2023-03-03T10:30:59;102461.75;;;10.70;43.10
40372;BME280;28564;53.346;-6.554;2023-03-03T10:33:38;102461.00;;;10.72;43.14
40372;BME280;28564;53.346;-6.554;2023-03-03T10:36:29;102461.98;;;10.85;43.00
40372;BME280;28564;53.346;-6.554;2023-03-03T10:39:10;102464.28;;;10.93;42.80
40372;BME280;28564;53.346;-6.554;2023-03-03T10:41:54;102467.15;;;10.82;42.72
40372;BME280;28564;53.346;-6.554;2023-03-03T10:44:33;102466.82;;;11.15;42.43
40372;BME280;28564;53.346;-6.554;2023-03-03T10:47:14;102471.18;;;11.05;42.04
40372;BME280;28564;53.346;-6.554;2023-03-03T10:49:55;102470.36;;;11.32;41.92
40372;BME280;28564;53.346;-6.554;2023-03-03T10:52:33;102470.75;;;11.32;41.38
40372;BME280;28564;53.346;-6.554;2023-03-03T10:55:17;102475.33;;;11.29;41.36
40372;BME280;28564;53.346;-6.554;2023-03-03T10:57:56;102473.59;;;11.20;41.47
40372;BME280;28564;53.346;-6.554;2023-03-03T11:00:32;102473.27;;;11.66;41.27
40372;BME280;28564;53.346;-6.554;2023-03-03T11:03:46;102474.04;;;11.25;40.73
40372;BME280;28564;53.346;-6.554;2023-03-03T11:06:24;102471.72;;;11.31;40.69
40372;BME280;28564;53.346;-6.554;2023-03-03T11:08:57;102473.91;;;11.33;40.57
40372;BME280;28564;53.346;-6.554;2023-03-03T11:11:35;102472.02;;;11.36;40.57
40372;BME280;28564;53.346;-6.554;2023-03-03T11:14:12;102473.86;;;11.34;40.42
40372;BME280;28564;53.346;-6.554;2023-03-03T11:16:46;102472.46;;;11.79;40.65
40372;BME280;28564;53.346;-6.554;2023-03-03T11:19:29;102473.32;;;11.58;41.02
40372;BME280;28564;53.346;-6.554;2023-03-03T11:22:11;102476.29;;;11.57;41.14
40372;BME280;28564;53.346;-6.554;2023-03-03T11:24:53;102479.11;;;11.30;41.25
40372;BME280;28564;53.346;-6.554;2023-03-03T11:27:36;102477.45;;;11.34;41.14
40372;BME280;28564;53.346;-6.554;2023-03-03T11:30:23;102478.57;;;11.36;41.10
40372;BME280;28564;53.346;-6.554;2023-03-03T11:33:00;102478.56;;;11.42;41.26
40372;BME280;28564;53.346;-6.554;2023-03-03T11:35:34;102479.19;;;11.59;41.33
40372;BME280;28564;53.346;-6.554;2023-03-03T11:38:16;102480.62;;;11.77;40.99
40372;BME280;28564;53.346;-6.554;2023-03-03T11:40:50;102483.96;;;11.92;40.56
40372;BME280;28564;53.346;-6.554;2023-03-03T11:43:26;102486.76;;;11.95;40.16
40372;BME280;28564;53.346;-6.554;2023-03-03T11:45:59;102488.06;;;11.86;40.25
40372;BME280;28564;53.346;-6.554;2023-03-03T11:48:35;102488.93;;;11.84;40.52
40372;BME280;28564;53.346;-6.554;2023-03-03T11:51:06;102491.76;;;11.93;40.47
40372;BME280;28564;53.346;-6.554;2023-03-03T11:53:44;102492.79;;;11.93;40.51
40372;BME280;28564;53.346;-6.554;2023-03-03T11:56:21;102490.51;;;11.78;40.52
40372;BME280;28564;53.346;-6.554;2023-03-03T11:58:59;102494.40;;;11.79;40.45
40372;BME280;28564;53.346;-6.554;2023-03-03T12:01:33;102494.23;;;11.74;41.18
40372;BME280;28564;53.346;-6.554;2023-03-03T12:04:04;102492.56;;;11.22;41.23
40372;BME280;28564;53.346;-6.554;2023-03-03T12:06:41;102495.11;;;11.33;40.88
40372;BME280;28564;53.346;-6.554;2023-03-03T12:09:21;102495.79;;;11.83;40.62
40372;BME280;28564;53.346;-6.554;2023-03-03T12:11:52;102498.47;;;11.40;40.60
40372;BME280;28564;53.346;-6.554;2023-03-03T12:14:35;102496.93;;;11.86;40.42
40372;BME280;28564;53.346;-6.554;2023-03-03T12:17:15;102495.20;;;11.73;40.05
40372;BME280;28564;53.346;-6.554;2023-03-03T12:19:55;102493.18;;;11.95;39.81
40372;BME280;28564;53.346;-6.554;2023-03-03T12:22:31;102493.27;;;12.25;39.70
40372;BME280;28564;53.346;-6.554;2023-03-03T12:25:14;102492.76;;;12.44;38.79
40372;BME280;28564;53.346;-6.554;2023-03-03T12:27:49;102490.52;;;12.30;38.72
40372;BME280;28564;53.346;-6.554;2023-03-03T12:30:27;102488.09;;;12.03;39.22
40372;BME280;28564;53.346;-6.554;2023-03-03T12:33:10;102493.20;;;11.89;39.37
40372;BME280;28564;53.346;-6.554;2023-03-03T12:35:42;102490.31;;;11.74;39.59
40372;BME280;28564;53.346;-6.554;2023-03-03T12:38:21;102490.33;;;11.68;39.79
40372;BME280;28564;53.346;-6.554;2023-03-03T12:40:58;102486.35;;;11.55;40.10
40372;BME280;28564;53.346;-6.554;2023-03-03T12:43:40;102486.55;;;11.36;40.36
40372;BME280;28564;53.346;-6.554;2023-03-03T12:46:18;102484.32;;;11.71;40.80
40372;BME280;28564;53.346;-6.554;2023-03-03T12:48:47;102485.48;;;11.70;40.92
40372;BME280;28564;53.346;-6.554;2023-03-03T12:51:25;102484.76;;;11.38;41.23
40372;BME280;28564;53.346;-6.554;2023-03-03T12:54:20;102483.01;;;11.25;41.53
40372;BME280;28564;53.346;-6.554;2023-03-03T12:56:53;102477.04;;;11.43;41.69
40372;BME280;28564;53.346;-6.554;2023-03-03T12:59:28;102479.55;;;11.16;41.72
40372;BME280;28564;53.346;-6.554;2023-03-03T13:02:14;102476.33;;;11.44;41.76
40372;BME280;28564;53.346;-6.554;2023-03-03T13:04:51;102476.61;;;11.42;41.10
40372;BME280;28564;53.346;-6.554;2023-03-03T13:07:25;102472.17;;;11.32;40.72
40372;BME280;28564;53.346;-6.554;2023-03-03T13:10:11;102468.38;;;10.74;41.06
40372;BME280;28564;53.346;-6.554;2023-03-03T13:12:45;102466.61;;;11.58;41.09
40372;BME280;28564;53.346;-6.554;2023-03-03T13:15:22;102465.89;;;11.45;40.73